sensor_id;sensor_type;location;lat;lon;timestamp;P1;durP1;ratioP1;P2;durP2;ratioP2
6823;SDS011;58633;49.470;11.004;2022-12-20T00:01:16;32.83;;;17.17;;
6823;SDS011;58633;49.470;11.004;2022-12-20T00:03:44;32.13;;;16.73;;
6823;SDS011;58633;49.470;11.004;2022-12-20T00:06:11;40.63;;;18.53;;
6823;SDS011;58633;49.470;11.004;2022-12-20T00:08:37;37.43;;;19.03;;
6823;SDS011;58633;49.470;11.004;2022-12-20T00:11:04;37.63;;;17.93;;
6823;SDS011;58633;49.470;11.004;2022-12-20T00:13:30;34.87;;;17.93;;
6823;SDS011;58633;49.470;11.004;2022-12-20T00:16:07;34.77;;;18.40;;
6823;SDS011;58633;49.470;11.004;2022-12-20T00:18:34;33.63;;;16.80;;
6823;SDS011;58633;49.470;11.004;2022-12-20T00:21:01;34.50;;;16.97;;
6823;SDS011;58633;49.470;11.004;2022-12-20T00:23:28;44.43;;;18.50;;
6823;SDS011;58633;49.470;11.004;2022-12-20T00:26:06;34.13;;;18.07;;
6823;SDS011;58633;49.470;11.004;2022-12-20T00:28:37;29.17;;;16.50;;
6823;SDS011;58633;49.470;11.004;2022-12-20T00:31:04;33.10;;;17.17;;
6823;SDS011;58633;49.470;11.004;2022-12-20T00:33:31;32.33;;;16.90;;
6823;SDS011;58633;49.470;11.004;2022-12-20T00:35:57;30.63;;;16.53;;
6823;SDS011;58633;49.470;11.004;2022-12-20T00:38:23;32.73;;;17.27;;
6823;SDS011;58633;49.470;11.004;2022-12-20T00:41:05;33.10;;;17.17;;
6823;SDS011;58633;49.470;11.004;2022-12-20T00:43:36;31.37;;;16.93;;
6823;SDS011;58633;49.470;11.004;2022-12-20T00:46:02;29.63;;;16.03;;
6823;SDS011;58633;49.470;11.004;2022-12-20T00:48:29;28.13;;;16.13;;
6823;SDS011;58633;49.470;11.004;2022-12-20T00:50:59;31.23;;;17.27;;
6823;SDS011;58633;49.470;11.004;2022-12-20T00:53:26;33.50;;;17.20;;
6823;SDS011;58633;49.470;11.004;2022-12-20T00:55:52;31.07;;;16.87;;
6823;SDS011;58633;49.470;11.004;2022-12-20T00:58:17;29.03;;;16.90;;
6823;SDS011;58633;49.470;11.004;2022-12-20T01:00:43;32.57;;;17.43;;
6823;SDS011;58633;49.470;11.004;2022-12-20T01:03:09;29.17;;;15.50;;
6823;SDS011;58633;49.470;11.004;2022-12-20T01:05:34;31.83;;;17.33;;
6823;SDS011;58633;49.470;11.004;2022-12-20T01:08:00;28.70;;;15.97;;
6823;SDS011;58633;49.470;11.004;2022-12-20T01:10:26;32.07;;;17.03;;
6823;SDS011;58633;49.470;11.004;2022-12-20T01:12:52;30.73;;;17.03;;
6823;SDS011;58633;49.470;11.004;2022-12-20T01:15:18;29.70;;;15.83;;
6823;SDS011;58633;49.470;11.004;2022-12-20T01:17:45;26.30;;;15.57;;
6823;SDS011;58633;49.470;11.004;2022-12-20T01:20:11;31.20;;;16.27;;
6823;SDS011;58633;49.470;11.004;2022-12-20T01:22:36;33.17;;;16.70;;
6823;SDS011;58633;49.470;11.004;2022-12-20T01:25:02;27.47;;;15.73;;
6823;SDS011;58633;49.470;11.004;2022-12-20T01:27:28;28.93;;;15.80;;
6823;SDS011;58633;49.470;11.004;2022-12-20T01:29:54;30.33;;;15.83;;
6823;SDS011;58633;49.470;11.004;2022-12-20T01:32:19;30.47;;;16.00;;
6823;SDS011;58633;49.470;11.004;2022-12-20T01:34:45;33.07;;;17.53;;
6823;SDS011;58633;49.470;11.004;2022-12-20T01:37:11;30.63;;;16.27;;
6823;SDS011;58633;49.470;11.004;2022-12-20T01:39:36;30.37;;;16.50;;
6823;SDS011;58633;49.470;11.004;2022-12-20T01:42:02;29.37;;;16.57;;
6823;SDS011;58633;49.470;11.004;2022-12-20T01:46:54;31.70;;;15.93;;
6823;SDS011;58633;49.470;11.004;2022-12-20T01:49:23;30.10;;;16.47;;
6823;SDS011;58633;49.470;11.004;2022-12-20T01:52:11;27.53;;;15.63;;
6823;SDS011;58633;49.470;11.004;2022-12-20T01:54:47;31.30;;;16.07;;
6823;SDS011;58633;49.470;11.004;2022-12-20T01:57:20;29.37;;;15.33;;
6823;SDS011;58633;49.470;11.004;2022-12-20T01:59:49;30.63;;;15.50;;
6823;SDS011;58633;49.470;11.004;2022-12-20T02:02:16;28.67;;;15.83;;
6823;SDS011;58633;49.470;11.004;2022-12-20T02:04:42;28.73;;;15.40;;
6823;SDS011;58633;49.470;11.004;2022-12-20T02:07:08;29.80;;;15.93;;
6823;SDS011;58633;49.470;11.004;2022-12-20T02:09:37;29.20;;;15.37;;
6823;SDS011;58633;49.470;11.004;2022-12-20T02:14:41;29.47;;;16.80;;
6823;SDS011;58633;49.470;11.004;2022-12-20T02:17:30;31.40;;;16.13;;
6823;SDS011;58633;49.470;11.004;2022-12-20T02:31:02;30.40;;;15.47;;
6823;SDS011;58633;49.470;11.004;2022-12-20T02:33:31;32.60;;;16.93;;
6823;SDS011;58633;49.470;11.004;2022-12-20T02:35:57;32.67;;;17.40;;
6823;SDS011;58633;49.470;11.004;2022-12-20T02:38:30;25.97;;;15.70;;
6823;SDS011;58633;49.470;11.004;2022-12-20T02:41:03;32.03;;;17.33;;
6823;SDS011;58633;49.470;11.004;2022-12-20T02:43:42;31.93;;;16.63;;
6823;SDS011;58633;49.470;11.004;2022-12-20T02:46:28;33.10;;;16.50;;
6823;SDS011;58633;49.470;11.004;2022-12-20T02:48:57;28.77;;;16.77;;
6823;SDS011;58633;49.470;11.004;2022-12-20T02:51:28;32.97;;;16.80;;
6823;SDS011;58633;49.470;11.004;2022-12-20T02:53:56;30.27;;;16.20;;
6823;SDS011;58633;49.470;11.004;2022-12-20T02:56:46;30.17;;;16.70;;
6823;SDS011;58633;49.470;11.004;2022-12-20T02:59:17;32.53;;;16.83;;
6823;SDS011;58633;49.470;11.004;2022-12-20T03:01:53;30.00;;;16.37;;
6823;SDS011;58633;49.470;11.004;2022-12-20T03:04:22;32.10;;;16.43;;
6823;SDS011;58633;49.470;11.004;2022-12-20T03:06:57;31.07;;;16.70;;
6823;SDS011;58633;49.470;11.004;2022-12-20T03:09:23;28.00;;;15.93;;
6823;SDS011;58633;49.470;11.004;2022-12-20T03:11:49;30.33;;;16.70;;
6823;SDS011;58633;49.470;11.004;2022-12-20T03:14:16;27.53;;;16.40;;
6823;SDS011;58633;49.470;11.004;2022-12-20T03:16:41;29.03;;;16.70;;
6823;SDS011;58633;49.470;11.004;2022-12-20T03:19:07;29.57;;;15.90;;
6823;SDS011;58633;49.470;11.004;2022-12-20T03:21:32;30.93;;;16.90;;
6823;SDS011;58633;49.470;11.004;2022-12-20T03:23:58;29.03;;;15.43;;
6823;SDS011;58633;49.470;11.004;2022-12-20T03:26:23;30.17;;;17.30;;
6823;SDS011;58633;49.470;11.004;2022-12-20T03:28:49;31.50;;;17.27;;
6823;SDS011;58633;49.470;11.004;2022-12-20T03:31:14;32.97;;;16.13;;
6823;SDS011;58633;49.470;11.004;2022-12-20T03:33:40;29.47;;;16.43;;
6823;SDS011;58633;49.470;11.004;2022-12-20T03:36:06;30.07;;;16.07;;
6823;SDS011;58633;49.470;11.004;2022-12-20T03:38:32;31.50;;;17.13;;
6823;SDS011;58633;49.470;11.004;2022-12-20T03:40:57;30.67;;;17.10;;
6823;SDS011;58633;49.470;11.004;2022-12-20T03:43:23;28.83;;;16.93;;
6823;SDS011;58633;49.470;11.004;2022-12-20T03:45:48;32.40;;;16.80;;
6823;SDS011;58633;49.470;11.004;2022-12-20T03:48:14;29.83;;;16.20;;
6823;SDS011;58633;49.470;11.004;2022-12-20T03:50:39;31.13;;;16.57;;
6823;SDS011;58633;49.470;11.004;2022-12-20T03:53:05;27.73;;;15.40;;
6823;SDS011;58633;49.470;11.004;2022-12-20T03:55:31;29.97;;;15.90;;
6823;SDS011;58633;49.470;11.004;2022-12-20T03:57:56;31.50;;;16.17;;
6823;SDS011;58633;49.470;11.004;2022-12-20T04:00:22;34.07;;;16.20;;
6823;SDS011;58633;49.470;11.004;2022-12-20T04:02:48;32.53;;;16.67;;
6823;SDS011;58633;49.470;11.004;2022-12-20T04:05:14;29.63;;;16.40;;
6823;SDS011;58633;49.470;11.004;2022-12-20T04:07:40;28.03;;;15.37;;
6823;SDS011;58633;49.470;11.004;2022-12-20T04:10:06;30.93;;;16.87;;
6823;SDS011;58633;49.470;11.004;2022-12-20T04:12:32;28.53;;;16.63;;
6823;SDS011;58633;49.470;11.004;2022-12-20T04:14:57;33.00;;;17.30;;
6823;SDS011;58633;49.470;11.004;2022-12-20T04:17:23;29.60;;;16.57;;
6823;SDS011;58633;49.470;11.004;2022-12-20T04:19:48;28.97;;;15.70;;
6823;SDS011;58633;49.470;11.004;2022-12-20T04:22:14;30.17;;;15.87;;
6823;SDS011;58633;49.470;11.004;2022-12-20T04:24:39;27.43;;;15.30;;
6823;SDS011;58633;49.470;11.004;2022-12-20T04:27:05;28.87;;;16.37;;
6823;SDS011;58633;49.470;11.004;2022-12-20T04:29:31;30.00;;;16.13;;
6823;SDS011;58633;49.470;11.004;2022-12-20T04:31:56;27.20;;;16.00;;
6823;SDS011;58633;49.470;11.004;2022-12-20T04:34:22;29.40;;;16.10;;
6823;SDS011;58633;49.470;11.004;2022-12-20T04:36:47;30.13;;;16.20;;
6823;SDS011;58633;49.470;11.004;2022-12-20T04:39:13;32.63;;;17.20;;
6823;SDS011;58633;49.470;11.004;2022-12-20T04:41:38;29.53;;;16.43;;
6823;SDS011;58633;49.470;11.004;2022-12-20T04:44:04;30.97;;;16.60;;
6823;SDS011;58633;49.470;11.004;2022-12-20T04:46:29;29.43;;;16.83;;
6823;SDS011;58633;49.470;11.004;2022-12-20T04:48:55;28.70;;;15.90;;
6823;SDS011;58633;49.470;11.004;2022-12-20T04:51:21;31.67;;;16.40;;
6823;SDS011;58633;49.470;11.004;2022-12-20T04:53:46;30.00;;;16.23;;
6823;SDS011;58633;49.470;11.004;2022-12-20T04:56:19;33.23;;;17.17;;
6823;SDS011;58633;49.470;11.004;2022-12-20T04:58:46;28.33;;;16.20;;
6823;SDS011;58633;49.470;11.004;2022-12-20T05:01:13;32.93;;;16.63;;
6823;SDS011;58633;49.470;11.004;2022-12-20T05:03:38;30.60;;;16.47;;
6823;SDS011;58633;49.470;11.004;2022-12-20T05:06:05;30.17;;;16.93;;
6823;SDS011;58633;49.470;11.004;2022-12-20T05:08:31;31.77;;;16.83;;
6823;SDS011;58633;49.470;11.004;2022-12-20T05:10:57;32.57;;;16.73;;
6823;SDS011;58633;49.470;11.004;2022-12-20T05:13:23;29.50;;;16.50;;
6823;SDS011;58633;49.470;11.004;2022-12-20T05:15:52;27.83;;;15.80;;
6823;SDS011;58633;49.470;11.004;2022-12-20T05:18:18;32.13;;;16.87;;
6823;SDS011;58633;49.470;11.004;2022-12-20T05:20:44;31.20;;;16.50;;
6823;SDS011;58633;49.470;11.004;2022-12-20T05:23:10;30.23;;;15.87;;
6823;SDS011;58633;49.470;11.004;2022-12-20T05:25:54;28.50;;;16.13;;
6823;SDS011;58633;49.470;11.004;2022-12-20T05:28:38;26.47;;;15.50;;
6823;SDS011;58633;49.470;11.004;2022-12-20T05:31:04;28.83;;;16.33;;
6823;SDS011;58633;49.470;11.004;2022-12-20T05:33:30;29.97;;;16.27;;
6823;SDS011;58633;49.470;11.004;2022-12-20T05:35:56;30.20;;;17.27;;
6823;SDS011;58633;49.470;11.004;2022-12-20T05:38:21;29.00;;;16.43;;
6823;SDS011;58633;49.470;11.004;2022-12-20T05:40:47;31.47;;;16.67;;
6823;SDS011;58633;49.470;11.004;2022-12-20T05:43:14;31.03;;;17.80;;
6823;SDS011;58633;49.470;11.004;2022-12-20T05:45:44;30.83;;;17.17;;
6823;SDS011;58633;49.470;11.004;2022-12-20T05:48:17;28.00;;;16.50;;
6823;SDS011;58633;49.470;11.004;2022-12-20T05:50:44;29.83;;;16.43;;
6823;SDS011;58633;49.470;11.004;2022-12-20T05:53:10;29.57;;;17.77;;
6823;SDS011;58633;49.470;11.004;2022-12-20T05:55:37;31.93;;;16.90;;
6823;SDS011;58633;49.470;11.004;2022-12-20T05:58:04;28.50;;;16.70;;
6823;SDS011;58633;49.470;11.004;2022-12-20T06:00:30;28.20;;;16.00;;
6823;SDS011;58633;49.470;11.004;2022-12-20T06:02:55;31.17;;;16.60;;
6823;SDS011;58633;49.470;11.004;2022-12-20T06:05:21;30.53;;;15.90;;
6823;SDS011;58633;49.470;11.004;2022-12-20T06:07:46;27.43;;;15.53;;
6823;SDS011;58633;49.470;11.004;2022-12-20T06:10:12;30.47;;;16.33;;
6823;SDS011;58633;49.470;11.004;2022-12-20T06:12:38;27.50;;;16.30;;
6823;SDS011;58633;49.470;11.004;2022-12-20T06:15:04;32.33;;;17.53;;
6823;SDS011;58633;49.470;11.004;2022-12-20T06:17:29;29.73;;;16.77;;
6823;SDS011;58633;49.470;11.004;2022-12-20T06:19:55;30.20;;;15.80;;
6823;SDS011;58633;49.470;11.004;2022-12-20T06:22:20;26.97;;;15.73;;
6823;SDS011;58633;49.470;11.004;2022-12-20T06:24:46;29.40;;;16.20;;
6823;SDS011;58633;49.470;11.004;2022-12-20T06:27:12;32.77;;;17.00;;
6823;SDS011;58633;49.470;11.004;2022-12-20T06:29:37;30.67;;;16.63;;
6823;SDS011;58633;49.470;11.004;2022-12-20T06:32:03;30.07;;;16.87;;
6823;SDS011;58633;49.470;11.004;2022-12-20T06:34:29;29.00;;;16.10;;
6823;SDS011;58633;49.470;11.004;2022-12-20T06:36:55;28.23;;;15.87;;
6823;SDS011;58633;49.470;11.004;2022-12-20T06:39:21;28.93;;;16.67;;
6823;SDS011;58633;49.470;11.004;2022-12-20T06:41:46;29.90;;;16.10;;
6823;SDS011;58633;49.470;11.004;2022-12-20T06:44:12;29.97;;;16.37;;
6823;SDS011;58633;49.470;11.004;2022-12-20T06:46:37;31.80;;;17.57;;
6823;SDS011;58633;49.470;11.004;2022-12-20T06:49:03;25.60;;;15.43;;
6823;SDS011;58633;49.470;11.004;2022-12-20T06:51:28;30.77;;;17.50;;
6823;SDS011;58633;49.470;11.004;2022-12-20T06:53:54;28.47;;;16.80;;
6823;SDS011;58633;49.470;11.004;2022-12-20T06:56:19;29.90;;;15.97;;
6823;SDS011;58633;49.470;11.004;2022-12-20T06:58:45;30.10;;;16.83;;
6823;SDS011;58633;49.470;11.004;2022-12-20T07:01:11;30.00;;;17.00;;
6823;SDS011;58633;49.470;11.004;2022-12-20T07:03:37;29.43;;;16.63;;
6823;SDS011;58633;49.470;11.004;2022-12-20T07:06:02;30.33;;;16.83;;
6823;SDS011;58633;49.470;11.004;2022-12-20T07:08:28;30.53;;;17.10;;
6823;SDS011;58633;49.470;11.004;2022-12-20T07:10:54;29.53;;;16.17;;
6823;SDS011;58633;49.470;11.004;2022-12-20T07:13:20;28.57;;;17.13;;
6823;SDS011;58633;49.470;11.004;2022-12-20T07:15:46;31.77;;;17.57;;
6823;SDS011;58633;49.470;11.004;2022-12-20T07:18:12;32.40;;;17.13;;
6823;SDS011;58633;49.470;11.004;2022-12-20T07:20:37;30.03;;;16.53;;
6823;SDS011;58633;49.470;11.004;2022-12-20T07:23:03;27.17;;;15.97;;
6823;SDS011;58633;49.470;11.004;2022-12-20T07:25:28;26.30;;;15.37;;
6823;SDS011;58633;49.470;11.004;2022-12-20T07:27:54;27.67;;;16.43;;
6823;SDS011;58633;49.470;11.004;2022-12-20T07:30:19;29.80;;;17.13;;
6823;SDS011;58633;49.470;11.004;2022-12-20T07:32:45;33.37;;;17.20;;
6823;SDS011;58633;49.470;11.004;2022-12-20T07:35:11;32.93;;;16.73;;
6823;SDS011;58633;49.470;11.004;2022-12-20T07:37:38;27.70;;;16.50;;
6823;SDS011;58633;49.470;11.004;2022-12-20T07:40:04;30.77;;;16.70;;
6823;SDS011;58633;49.470;11.004;2022-12-20T07:42:31;27.03;;;16.30;;
6823;SDS011;58633;49.470;11.004;2022-12-20T07:44:57;31.47;;;17.00;;
6823;SDS011;58633;49.470;11.004;2022-12-20T07:47:22;28.90;;;16.77;;
6823;SDS011;58633;49.470;11.004;2022-12-20T07:49:48;33.07;;;16.83;;
6823;SDS011;58633;49.470;11.004;2022-12-20T07:52:13;29.83;;;16.50;;
6823;SDS011;58633;49.470;11.004;2022-12-20T07:54:42;29.03;;;17.17;;
6823;SDS011;58633;49.470;11.004;2022-12-20T07:57:13;30.40;;;16.57;;
6823;SDS011;58633;49.470;11.004;2022-12-20T07:59:45;27.77;;;15.63;;
6823;SDS011;58633;49.470;11.004;2022-12-20T08:02:15;29.23;;;16.53;;
6823;SDS011;58633;49.470;11.004;2022-12-20T08:04:45;30.63;;;16.47;;
6823;SDS011;58633;49.470;11.004;2022-12-20T08:07:11;30.50;;;17.37;;
6823;SDS011;58633;49.470;11.004;2022-12-20T08:09:38;29.70;;;16.57;;
6823;SDS011;58633;49.470;11.004;2022-12-20T08:12:07;26.63;;;15.63;;
6823;SDS011;58633;49.470;11.004;2022-12-20T08:14:36;27.50;;;16.00;;
6823;SDS011;58633;49.470;11.004;2022-12-20T08:17:02;29.33;;;15.77;;
6823;SDS011;58633;49.470;11.004;2022-12-20T08:19:27;27.87;;;16.47;;
6823;SDS011;58633;49.470;11.004;2022-12-20T08:21:53;28.43;;;16.50;;
6823;SDS011;58633;49.470;11.004;2022-12-20T08:24:18;29.43;;;17.20;;
6823;SDS011;58633;49.470;11.004;2022-12-20T08:26:44;30.27;;;16.70;;
6823;SDS011;58633;49.470;11.004;2022-12-20T08:29:09;27.53;;;15.90;;
6823;SDS011;58633;49.470;11.004;2022-12-20T08:31:38;27.40;;;16.43;;
6823;SDS011;58633;49.470;11.004;2022-12-20T08:34:06;27.57;;;16.07;;
6823;SDS011;58633;49.470;11.004;2022-12-20T08:36:31;28.77;;;15.33;;
6823;SDS011;58633;49.470;11.004;2022-12-20T08:38:57;26.63;;;15.20;;
6823;SDS011;58633;49.470;11.004;2022-12-20T08:41:25;26.17;;;15.27;;
6823;SDS011;58633;49.470;11.004;2022-12-20T08:43:51;27.33;;;16.10;;
6823;SDS011;58633;49.470;11.004;2022-12-20T08:46:17;29.57;;;15.33;;
6823;SDS011;58633;49.470;11.004;2022-12-20T08:48:42;28.07;;;15.23;;
6823;SDS011;58633;49.470;11.004;2022-12-20T08:51:09;28.80;;;16.70;;
6823;SDS011;58633;49.470;11.004;2022-12-20T08:53:35;25.73;;;14.57;;
6823;SDS011;58633;49.470;11.004;2022-12-20T08:58:31;27.70;;;15.10;;
6823;SDS011;58633;49.470;11.004;2022-12-20T09:01:00;27.03;;;15.67;;
6823;SDS011;58633;49.470;11.004;2022-12-20T09:03:30;27.43;;;15.13;;
6823;SDS011;58633;49.470;11.004;2022-12-20T09:05:57;25.20;;;14.80;;
6823;SDS011;58633;49.470;11.004;2022-12-20T09:08:23;27.07;;;15.43;;
6823;SDS011;58633;49.470;11.004;2022-12-20T09:10:49;24.90;;;14.63;;
6823;SDS011;58633;49.470;11.004;2022-12-20T09:13:15;26.60;;;15.37;;
6823;SDS011;58633;49.470;11.004;2022-12-20T09:15:41;27.37;;;14.97;;
6823;SDS011;58633;49.470;11.004;2022-12-20T09:18:07;26.37;;;15.07;;
6823;SDS011;58633;49.470;11.004;2022-12-20T09:20:34;23.53;;;14.07;;
6823;SDS011;58633;49.470;11.004;2022-12-20T09:22:59;26.63;;;14.93;;
6823;SDS011;58633;49.470;11.004;2022-12-20T09:25:25;27.90;;;15.50;;
6823;SDS011;58633;49.470;11.004;2022-12-20T09:27:52;25.33;;;14.10;;
6823;SDS011;58633;49.470;11.004;2022-12-20T09:30:20;26.70;;;15.47;;
6823;SDS011;58633;49.470;11.004;2022-12-20T09:32:46;24.33;;;14.67;;
6823;SDS011;58633;49.470;11.004;2022-12-20T09:35:12;24.97;;;14.87;;
6823;SDS011;58633;49.470;11.004;2022-12-20T09:37:37;26.13;;;14.40;;
6823;SDS011;58633;49.470;11.004;2022-12-20T09:40:03;24.40;;;14.50;;
6823;SDS011;58633;49.470;11.004;2022-12-20T09:42:29;27.13;;;15.33;;
6823;SDS011;58633;49.470;11.004;2022-12-20T09:45:40;30.73;;;16.30;;
6823;SDS011;58633;49.470;11.004;2022-12-20T09:47:45;27.87;;;15.33;;
6823;SDS011;58633;49.470;11.004;2022-12-20T09:50:14;26.33;;;15.27;;
6823;SDS011;58633;49.470;11.004;2022-12-20T09:55:40;25.70;;;15.37;;
6823;SDS011;58633;49.470;11.004;2022-12-20T09:58:23;26.00;;;15.20;;
6823;SDS011;58633;49.470;11.004;2022-12-20T10:01:03;29.70;;;16.03;;
6823;SDS011;58633;49.470;11.004;2022-12-20T10:03:40;25.40;;;14.93;;
6823;SDS011;58633;49.470;11.004;2022-12-20T10:17:45;25.03;;;14.63;;
6823;SDS011;58633;49.470;11.004;2022-12-20T10:20:46;24.63;;;14.47;;
6823;SDS011;58633;49.470;11.004;2022-12-20T10:23:24;25.27;;;14.33;;
6823;SDS011;58633;49.470;11.004;2022-12-20T10:26:10;24.83;;;14.57;;
6823;SDS011;58633;49.470;11.004;2022-12-20T10:28:37;26.70;;;14.30;;
6823;SDS011;58633;49.470;11.004;2022-12-20T10:31:06;22.60;;;14.20;;
6823;SDS011;58633;49.470;11.004;2022-12-20T10:33:35;23.77;;;13.83;;
6823;SDS011;58633;49.470;11.004;2022-12-20T10:36:20;26.37;;;14.00;;
6823;SDS011;58633;49.470;11.004;2022-12-20T10:38:51;23.60;;;13.53;;
6823;SDS011;58633;49.470;11.004;2022-12-20T10:41:22;24.33;;;13.90;;
6823;SDS011;58633;49.470;11.004;2022-12-20T10:43:54;22.30;;;13.17;;
6823;SDS011;58633;49.470;11.004;2022-12-20T10:46:35;24.57;;;13.90;;
6823;SDS011;58633;49.470;11.004;2022-12-20T10:49:19;22.63;;;13.10;;
6823;SDS011;58633;49.470;11.004;2022-12-20T10:51:59;22.70;;;13.50;;
6823;SDS011;58633;49.470;11.004;2022-12-20T10:54:33;25.77;;;13.67;;
6823;SDS011;58633;49.470;11.004;2022-12-20T10:57:02;24.10;;;14.13;;
6823;SDS011;58633;49.470;11.004;2022-12-20T10:59:50;21.10;;;12.60;;
6823;SDS011;58633;49.470;11.004;2022-12-20T11:02:28;23.00;;;12.90;;
6823;SDS011;58633;49.470;11.004;2022-12-20T11:05:01;20.10;;;12.53;;
6823;SDS011;58633;49.470;11.004;2022-12-20T11:07:33;23.43;;;13.97;;
6823;SDS011;58633;49.470;11.004;2022-12-20T11:10:01;21.73;;;12.20;;
6823;SDS011;58633;49.470;11.004;2022-12-20T11:12:54;22.37;;;13.10;;
6823;SDS011;58633;49.470;11.004;2022-12-20T11:15:24;23.07;;;13.20;;
6823;SDS011;58633;49.470;11.004;2022-12-20T11:18:03;19.93;;;12.63;;
6823;SDS011;58633;49.470;11.004;2022-12-20T11:23:44;22.13;;;12.80;;
6823;SDS011;58633;49.470;11.004;2022-12-20T11:31:31;21.50;;;12.67;;
6823;SDS011;58633;49.470;11.004;2022-12-20T11:34:22;21.87;;;12.77;;
6823;SDS011;58633;49.470;11.004;2022-12-20T11:39:47;20.40;;;12.27;;
6823;SDS011;58633;49.470;11.004;2022-12-20T11:42:37;20.93;;;12.83;;
6823;SDS011;58633;49.470;11.004;2022-12-20T11:45:23;21.63;;;13.27;;
6823;SDS011;58633;49.470;11.004;2022-12-20T11:48:23;20.73;;;12.70;;
6823;SDS011;58633;49.470;11.004;2022-12-20T11:53:44;20.53;;;11.87;;
6823;SDS011;58633;49.470;11.004;2022-12-20T11:59:04;25.83;;;14.07;;
6823;SDS011;58633;49.470;11.004;2022-12-20T12:01:54;23.10;;;13.27;;
6823;SDS011;58633;49.470;11.004;2022-12-20T12:04:26;22.17;;;13.90;;
6823;SDS011;58633;49.470;11.004;2022-12-20T12:07:30;25.10;;;14.27;;
6823;SDS011;58633;49.470;11.004;2022-12-20T12:17:46;22.97;;;12.77;;
6823;SDS011;58633;49.470;11.004;2022-12-20T12:25:51;25.67;;;13.80;;
6823;SDS011;58633;49.470;11.004;2022-12-20T12:28:18;23.43;;;13.93;;
6823;SDS011;58633;49.470;11.004;2022-12-20T12:30:46;22.63;;;13.13;;
6823;SDS011;58633;49.470;11.004;2022-12-20T12:33:19;22.47;;;11.97;;
6823;SDS011;58633;49.470;11.004;2022-12-20T12:35:53;21.20;;;12.60;;
6823;SDS011;58633;49.470;11.004;2022-12-20T12:38:46;21.27;;;11.40;;
6823;SDS011;58633;49.470;11.004;2022-12-20T12:47:00;21.33;;;12.13;;
6823;SDS011;58633;49.470;11.004;2022-12-20T12:49:29;22.90;;;12.53;;
6823;SDS011;58633;49.470;11.004;2022-12-20T12:52:00;19.73;;;11.80;;
6823;SDS011;58633;49.470;11.004;2022-12-20T12:54:33;20.27;;;12.83;;
6823;SDS011;58633;49.470;11.004;2022-12-20T12:59:41;18.73;;;11.70;;
6823;SDS011;58633;49.470;11.004;2022-12-20T13:07:39;21.67;;;13.20;;
6823;SDS011;58633;49.470;11.004;2022-12-20T13:12:46;20.43;;;11.70;;
6823;SDS011;58633;49.470;11.004;2022-12-20T13:17:50;21.43;;;12.23;;
6823;SDS011;58633;49.470;11.004;2022-12-20T13:20:20;20.93;;;12.30;;
6823;SDS011;58633;49.470;11.004;2022-12-20T13:25:35;19.33;;;11.70;;
6823;SDS011;58633;49.470;11.004;2022-12-20T13:30:44;20.60;;;12.60;;
6823;SDS011;58633;49.470;11.004;2022-12-20T13:33:19;22.33;;;11.90;;
6823;SDS011;58633;49.470;11.004;2022-12-20T13:35:56;23.93;;;12.00;;
6823;SDS011;58633;49.470;11.004;2022-12-20T13:42:05;26.13;;;13.67;;
6823;SDS011;58633;49.470;11.004;2022-12-20T13:46:46;20.00;;;12.37;;
6823;SDS011;58633;49.470;11.004;2022-12-20T13:49:25;20.03;;;11.97;;
6823;SDS011;58633;49.470;11.004;2022-12-20T13:54:46;20.33;;;11.77;;
6823;SDS011;58633;49.470;11.004;2022-12-20T13:57:20;20.97;;;11.93;;
6823;SDS011;58633;49.470;11.004;2022-12-20T13:59:58;20.63;;;12.60;;
6823;SDS011;58633;49.470;11.004;2022-12-20T14:02:28;19.03;;;12.13;;
6823;SDS011;58633;49.470;11.004;2022-12-20T14:05:19;20.57;;;11.97;;
6823;SDS011;58633;49.470;11.004;2022-12-20T14:07:52;19.73;;;11.33;;
6823;SDS011;58633;49.470;11.004;2022-12-20T14:10:23;20.17;;;11.73;;
6823;SDS011;58633;49.470;11.004;2022-12-20T14:12:50;24.20;;;11.90;;
6823;SDS011;58633;49.470;11.004;2022-12-20T14:17:46;20.30;;;11.63;;
6823;SDS011;58633;49.470;11.004;2022-12-20T14:20:13;21.60;;;11.70;;
6823;SDS011;58633;49.470;11.004;2022-12-20T14:22:50;19.50;;;12.27;;
6823;SDS011;58633;49.470;11.004;2022-12-20T14:25:41;22.73;;;13.10;;
6823;SDS011;58633;49.470;11.004;2022-12-20T14:28:24;21.53;;;13.17;;
6823;SDS011;58633;49.470;11.004;2022-12-20T14:30:55;20.33;;;12.53;;
6823;SDS011;58633;49.470;11.004;2022-12-20T14:33:38;27.33;;;12.87;;
6823;SDS011;58633;49.470;11.004;2022-12-20T14:38:40;21.27;;;12.70;;
6823;SDS011;58633;49.470;11.004;2022-12-20T14:44:19;21.80;;;13.10;;
6823;SDS011;58633;49.470;11.004;2022-12-20T14:46:53;23.03;;;12.57;;
6823;SDS011;58633;49.470;11.004;2022-12-20T14:49:27;21.07;;;12.20;;
6823;SDS011;58633;49.470;11.004;2022-12-20T14:54:39;28.73;;;14.07;;
6823;SDS011;58633;49.470;11.004;2022-12-20T15:00:00;26.40;;;14.10;;
6823;SDS011;58633;49.470;11.004;2022-12-20T15:02:33;23.43;;;13.37;;
6823;SDS011;58633;49.470;11.004;2022-12-20T15:05:37;21.07;;;12.90;;
6823;SDS011;58633;49.470;11.004;2022-12-20T15:08:10;20.83;;;12.47;;
6823;SDS011;58633;49.470;11.004;2022-12-20T15:10:37;23.47;;;12.83;;
6823;SDS011;58633;49.470;11.004;2022-12-20T15:13:07;22.37;;;13.67;;
6823;SDS011;58633;49.470;11.004;2022-12-20T15:15:36;22.10;;;13.80;;
6823;SDS011;58633;49.470;11.004;2022-12-20T15:18:06;22.27;;;12.93;;
6823;SDS011;58633;49.470;11.004;2022-12-20T15:20:42;22.73;;;12.83;;
6823;SDS011;58633;49.470;11.004;2022-12-20T15:23:12;21.90;;;12.73;;
6823;SDS011;58633;49.470;11.004;2022-12-20T15:25:41;19.90;;;12.53;;
6823;SDS011;58633;49.470;11.004;2022-12-20T15:28:12;22.13;;;12.13;;
6823;SDS011;58633;49.470;11.004;2022-12-20T15:30:45;19.70;;;12.33;;
6823;SDS011;58633;49.470;11.004;2022-12-20T15:33:16;25.27;;;13.23;;
6823;SDS011;58633;49.470;11.004;2022-12-20T15:35:43;27.67;;;13.00;;
6823;SDS011;58633;49.470;11.004;2022-12-20T15:38:12;22.00;;;12.80;;
6823;SDS011;58633;49.470;11.004;2022-12-20T15:40:46;20.00;;;12.17;;
6823;SDS011;58633;49.470;11.004;2022-12-20T15:43:16;22.27;;;13.37;;
6823;SDS011;58633;49.470;11.004;2022-12-20T15:45:44;26.13;;;13.90;;
6823;SDS011;58633;49.470;11.004;2022-12-20T15:48:15;21.63;;;13.13;;
6823;SDS011;58633;49.470;11.004;2022-12-20T15:50:44;22.40;;;12.80;;
6823;SDS011;58633;49.470;11.004;2022-12-20T15:53:31;21.73;;;12.87;;
6823;SDS011;58633;49.470;11.004;2022-12-20T15:55:58;23.17;;;12.40;;
6823;SDS011;58633;49.470;11.004;2022-12-20T15:58:24;22.63;;;13.00;;
6823;SDS011;58633;49.470;11.004;2022-12-20T16:00:54;23.07;;;12.87;;
6823;SDS011;58633;49.470;11.004;2022-12-20T16:03:25;22.47;;;12.90;;
6823;SDS011;58633;49.470;11.004;2022-12-20T16:05:56;21.83;;;12.80;;
6823;SDS011;58633;49.470;11.004;2022-12-20T16:08:22;22.13;;;12.70;;
6823;SDS011;58633;49.470;11.004;2022-12-20T16:10:48;24.43;;;13.10;;
6823;SDS011;58633;49.470;11.004;2022-12-20T16:13:16;19.93;;;12.10;;
6823;SDS011;58633;49.470;11.004;2022-12-20T16:15:48;24.73;;;13.60;;
6823;SDS011;58633;49.470;11.004;2022-12-20T16:18:15;23.27;;;13.93;;
6823;SDS011;58633;49.470;11.004;2022-12-20T16:20:41;25.43;;;14.37;;
6823;SDS011;58633;49.470;11.004;2022-12-20T16:23:16;27.57;;;15.53;;
6823;SDS011;58633;49.470;11.004;2022-12-20T16:25:43;20.50;;;13.10;;